createdAt,value
2018-08-07T00:02:26.793Z,20.80
2018-08-07T00:05:37.223Z,20.90
2018-08-07T00:08:48.138Z,20.80
2018-08-07T00:11:58.397Z,20.80
2018-08-07T00:15:10.869Z,20.80
2018-08-07T00:18:21.469Z,20.80
2018-08-07T00:21:31.874Z,20.70
2018-08-07T00:24:41.865Z,20.70
2018-08-07T00:27:52.386Z,20.70
2018-08-07T00:31:03.182Z,20.70
2018-08-07T00:34:13.518Z,20.60
2018-08-07T00:37:23.671Z,20.60
2018-08-07T00:40:34.196Z,20.60
2018-08-07T00:43:44.807Z,20.60
2018-08-07T00:46:55.367Z,20.50
2018-08-07T00:50:10.209Z,20.40
2018-08-07T00:53:21.181Z,20.40
2018-08-07T00:56:31.857Z,20.40
2018-08-07T00:59:43.137Z,20.30
2018-08-07T01:02:56.407Z,20.30
2018-08-07T01:06:07.368Z,20.30
2018-08-07T01:09:17.282Z,20.40
2018-08-07T01:12:27.269Z,20.30
2018-08-07T01:15:37.652Z,20.40
2018-08-07T01:18:47.807Z,20.40
2018-08-07T01:21:58.106Z,20.40
2018-08-07T01:25:12.974Z,20.30
2018-08-07T01:28:23.008Z,20.30
2018-08-07T01:31:33.324Z,20.30
2018-08-07T01:34:43.456Z,20.30
2018-08-07T01:37:53.412Z,20.30
2018-08-07T01:41:03.892Z,20.30
2018-08-07T01:44:14.477Z,20.30
2018-08-07T01:47:24.588Z,20.30
2018-08-07T01:50:35.393Z,20.20
2018-08-07T01:53:45.841Z,20.20
2018-08-07T01:56:55.798Z,20.20
2018-08-07T02:00:08.384Z,20.20
2018-08-07T02:03:18.924Z,20.20
2018-08-07T02:06:29.234Z,20.20
2018-08-07T02:09:40.011Z,20.20
2018-08-07T02:12:50.329Z,20.10
2018-08-07T02:16:01.636Z,20.10
2018-08-07T02:19:12.289Z,20.20
2018-08-07T02:22:23.524Z,20.10
2018-08-07T02:25:33.562Z,20.10
2018-08-07T02:28:43.587Z,20.10
2018-08-07T02:31:53.991Z,20.10
2018-08-07T02:35:04.471Z,20.00
2018-08-07T02:38:14.805Z,20.10
2018-08-07T02:41:25.010Z,20.00
2018-08-07T02:44:35.075Z,20.00
2018-08-07T02:47:45.986Z,19.90
2018-08-07T02:50:55.882Z,19.90
2018-08-07T02:54:06.032Z,19.90
2018-08-07T02:57:15.914Z,19.90
2018-08-07T03:00:26.710Z,19.90
2018-08-07T03:06:47.957Z,19.90
2018-08-07T03:09:58.423Z,19.90
2018-08-07T03:13:09.226Z,19.90
2018-08-07T03:16:19.867Z,19.90
2018-08-07T03:19:31.038Z,19.90
2018-08-07T03:22:41.030Z,19.90
2018-08-07T03:25:51.895Z,19.90
2018-08-07T03:29:02.755Z,19.90
2018-08-07T03:32:13.164Z,20.00
2018-08-07T03:35:23.798Z,19.90
2018-08-07T03:38:34.420Z,20.00
2018-08-07T03:41:45.123Z,19.90
2018-08-07T03:44:55.511Z,20.00
2018-08-07T03:48:05.934Z,20.00
2018-08-07T03:51:16.366Z,20.00
2018-08-07T03:54:26.442Z,20.00
2018-08-07T03:57:37.130Z,20.00
2018-08-07T04:00:48.331Z,20.00
2018-08-07T04:03:59.221Z,20.00
2018-08-07T04:07:10.345Z,20.00
2018-08-07T04:10:21.098Z,20.00
2018-08-07T04:13:31.311Z,20.00
2018-08-07T04:16:48.898Z,20.00
2018-08-07T04:19:58.904Z,20.00
2018-08-07T04:23:09.634Z,20.00
2018-08-07T04:26:19.606Z,20.00
2018-08-07T04:29:30.344Z,20.00
2018-08-07T04:32:40.934Z,20.00
2018-08-07T04:35:51.269Z,20.00
2018-08-07T04:39:01.371Z,20.00
2018-08-07T04:42:11.246Z,20.10
2018-08-07T04:45:21.366Z,20.10
2018-08-07T04:48:32.547Z,20.20
2018-08-07T04:51:43.415Z,20.20
2018-08-07T04:54:53.594Z,20.20
2018-08-07T04:58:04.030Z,20.30
2018-08-07T05:01:14.791Z,20.40
2018-08-07T05:04:25.561Z,20.50
2018-08-07T05:07:36.589Z,20.60
2018-08-07T05:10:47.485Z,20.70
2018-08-07T05:17:08.704Z,21.00
2018-08-07T05:20:19.283Z,21.20
2018-08-07T05:23:29.404Z,21.30
2018-08-07T05:26:39.392Z,21.50
2018-08-07T05:29:49.626Z,21.60
2018-08-07T05:33:00.562Z,21.70
2018-08-07T05:36:10.737Z,21.90
2018-08-07T05:39:20.710Z,22.00
2018-08-07T05:42:32.006Z,22.20
2018-08-07T05:45:42.874Z,22.40
2018-08-07T05:48:54.090Z,22.60
2018-08-07T05:52:04.617Z,22.80
2018-08-07T05:55:14.650Z,22.90
2018-08-07T05:58:24.991Z,23.20
2018-08-07T06:01:34.984Z,23.30
2018-08-07T06:04:45.516Z,23.50
2018-08-07T06:07:56.864Z,23.60
2018-08-07T06:11:07.673Z,23.80
2018-08-07T06:14:17.863Z,23.90
2018-08-07T06:17:28.223Z,24.00
2018-08-07T06:20:38.054Z,24.20
2018-08-07T06:23:48.168Z,24.30
2018-08-07T06:26:59.085Z,24.50
2018-08-07T06:30:12.576Z,24.60
2018-08-07T06:33:23.030Z,24.80
2018-08-07T06:36:33.290Z,24.90
2018-08-07T06:39:43.667Z,25.10
2018-08-07T06:42:53.525Z,25.30
2018-08-07T06:46:03.482Z,25.40
2018-08-07T06:49:13.989Z,25.60
2018-08-07T06:52:24.612Z,25.80
2018-08-07T06:55:34.302Z,25.90
2018-08-07T06:58:44.113Z,26.10
2018-08-07T07:01:55.371Z,26.20
2018-08-07T07:05:05.502Z,26.40
2018-08-07T07:08:16.426Z,26.60
2018-08-07T07:11:26.555Z,26.70
2018-08-07T07:14:37.064Z,27.00
2018-08-07T07:17:47.958Z,27.10
2018-08-07T07:20:58.475Z,27.30
2018-08-07T07:24:08.620Z,27.50
2018-08-07T07:27:19.532Z,27.60
2018-08-07T07:30:29.721Z,27.80
2018-08-07T07:33:39.731Z,28.00
2018-08-07T07:36:57.190Z,28.10
2018-08-07T07:40:07.375Z,28.20
2018-08-07T07:43:17.178Z,28.40
2018-08-07T07:46:27.654Z,28.60
2018-08-07T07:49:39.419Z,28.80
2018-08-07T07:52:49.782Z,29.00
2018-08-07T07:55:59.678Z,29.10
2018-08-07T07:59:09.656Z,29.20
2018-08-07T08:02:19.795Z,29.30
2018-08-07T08:05:30.261Z,29.40
2018-08-07T08:08:41.192Z,29.60
2018-08-07T08:11:52.988Z,29.70
2018-08-07T08:15:03.744Z,29.90
2018-08-07T08:18:14.046Z,30.10
2018-08-07T08:21:24.094Z,30.30
2018-08-07T08:24:34.461Z,30.40
2018-08-07T08:27:45.214Z,30.40
2018-08-07T08:30:55.550Z,30.50
2018-08-07T08:34:06.082Z,30.70
2018-08-07T08:37:16.598Z,30.60
2018-08-07T08:40:26.730Z,30.90
2018-08-07T08:43:37.122Z,30.90
2018-08-07T08:46:47.605Z,30.80
2018-08-07T08:49:57.662Z,30.90
2018-08-07T08:53:08.038Z,31.10
2018-08-07T08:56:18.691Z,31.40
2018-08-07T08:59:29.369Z,31.40
2018-08-07T09:02:39.479Z,31.50
2018-08-07T09:05:49.529Z,31.50
2018-08-07T09:12:10.059Z,31.70
2018-08-07T09:15:20.520Z,32.00
2018-08-07T09:18:30.264Z,32.00
2018-08-07T09:21:40.704Z,32.00
2018-08-07T09:24:50.886Z,32.00
2018-08-07T09:28:01.222Z,32.00
2018-08-07T09:31:12.055Z,32.00
2018-08-07T09:34:22.731Z,32.00
2018-08-07T09:37:33.256Z,31.90
2018-08-07T09:40:43.761Z,31.80
2018-08-07T09:43:53.773Z,31.70
2018-08-07T09:47:04.241Z,31.70
2018-08-07T09:50:15.930Z,31.60
2018-08-07T09:53:26.270Z,31.80
2018-08-07T09:56:36.444Z,32.00
2018-08-07T09:59:46.660Z,32.10
2018-08-07T10:03:02.453Z,32.20
2018-08-07T10:06:12.382Z,32.30
2018-08-07T10:09:22.432Z,32.40
2018-08-07T10:12:33.658Z,32.50
2018-08-07T10:15:43.835Z,32.60
2018-08-07T10:18:53.694Z,32.50
2018-08-07T10:22:04.009Z,32.60
2018-08-07T10:25:16.326Z,32.60
2018-08-07T10:28:26.598Z,32.80
2018-08-07T10:31:36.708Z,32.70
2018-08-07T10:34:46.762Z,32.80
2018-08-07T10:37:57.081Z,32.80
2018-08-07T10:41:07.200Z,32.80
2018-08-07T10:44:18.074Z,32.90
2018-08-07T10:47:28.222Z,33.00
2018-08-07T10:50:37.963Z,33.20
2018-08-07T10:53:48.604Z,33.40
2018-08-07T10:56:58.906Z,33.00
2018-08-07T11:00:18.145Z,33.00
2018-08-07T11:03:28.131Z,33.10
2018-08-07T11:06:38.602Z,32.80
2018-08-07T11:09:48.835Z,33.10
2018-08-07T11:12:58.878Z,33.00
2018-08-07T11:16:09.331Z,33.00
2018-08-07T11:19:19.485Z,33.20
2018-08-07T11:25:39.253Z,33.40
2018-08-07T11:28:48.840Z,33.50
2018-08-07T11:31:59.106Z,33.60
2018-08-07T11:35:10.007Z,33.70
2018-08-07T11:38:20.327Z,33.60
2018-08-07T11:41:30.869Z,33.40
2018-08-07T11:44:41.414Z,33.60
2018-08-07T11:47:51.486Z,33.70
2018-08-07T11:51:02.082Z,33.50
2018-08-07T11:54:11.773Z,33.70
2018-08-07T11:57:22.171Z,33.90
2018-08-07T12:00:34.654Z,34.00
2018-08-07T12:03:44.374Z,33.90
2018-08-07T12:06:54.431Z,33.70
2018-08-07T12:10:05.497Z,33.90
2018-08-07T12:13:15.935Z,34.00
2018-08-07T12:19:35.507Z,34.40
2018-08-07T12:22:45.220Z,34.60
2018-08-07T12:25:56.752Z,34.50
2018-08-07T12:29:07.117Z,34.50
2018-08-07T12:32:17.424Z,34.70
2018-08-07T12:35:27.299Z,34.80
2018-08-07T12:38:37.397Z,34.60
2018-08-07T12:41:47.039Z,34.50
2018-08-07T12:44:57.581Z,34.60
2018-08-07T12:48:07.674Z,34.70
2018-08-07T12:51:17.970Z,34.60
2018-08-07T12:54:27.992Z,34.20
2018-08-07T12:57:38.646Z,34.20
2018-08-07T13:00:48.337Z,34.30
2018-08-07T13:03:58.168Z,34.50
2018-08-07T13:07:08.345Z,34.60
2018-08-07T13:10:21.346Z,34.70
2018-08-07T13:13:31.359Z,34.70
2018-08-07T13:16:42.483Z,34.70
2018-08-07T13:19:52.641Z,34.70
2018-08-07T13:23:03.201Z,34.70
2018-08-07T13:26:13.501Z,34.70
2018-08-07T13:29:23.141Z,34.70
2018-08-07T13:32:33.188Z,34.80
2018-08-07T13:35:44.055Z,34.90
2018-08-07T13:38:54.194Z,35.10
2018-08-07T13:42:04.577Z,35.30
2018-08-07T13:45:20.327Z,35.20
2018-08-07T13:48:30.058Z,34.90
2018-08-07T13:51:40.025Z,34.70
2018-08-07T13:54:50.204Z,34.50
2018-08-07T13:58:00.519Z,34.40
2018-08-07T14:04:21.290Z,34.50
2018-08-07T14:07:31.009Z,34.70
2018-08-07T14:10:41.570Z,34.70
2018-08-07T14:13:51.483Z,34.70
2018-08-07T14:17:01.268Z,34.80
2018-08-07T14:20:12.613Z,34.90
2018-08-07T14:23:22.420Z,35.00
2018-08-07T14:26:32.818Z,35.00
2018-08-07T14:29:42.961Z,35.00
2018-08-07T14:32:53.180Z,35.20
2018-08-07T14:36:03.362Z,35.30
2018-08-07T14:39:13.229Z,35.20
2018-08-07T14:42:23.775Z,34.80
2018-08-07T14:45:33.964Z,35.00
2018-08-07T14:48:43.849Z,35.00
2018-08-07T14:51:54.688Z,34.90
2018-08-07T14:55:05.608Z,34.90
2018-08-07T14:58:16.208Z,35.00
2018-08-07T15:01:26.621Z,34.90
2018-08-07T15:04:36.963Z,34.70
2018-08-07T15:07:47.433Z,34.50
2018-08-07T15:10:57.315Z,34.40
2018-08-07T15:14:07.765Z,34.60
2018-08-07T15:17:17.975Z,34.40
2018-08-07T15:20:29.235Z,34.30
2018-08-07T15:23:40.404Z,34.30
2018-08-07T15:26:50.405Z,34.40
2018-08-07T15:30:00.483Z,34.30
2018-08-07T15:33:10.690Z,34.20
2018-08-07T15:36:20.834Z,34.20
2018-08-07T15:39:31.304Z,33.90
2018-08-07T15:42:42.988Z,34.00
2018-08-07T15:45:53.347Z,34.10
2018-08-07T15:49:03.473Z,34.00
2018-08-07T15:52:13.632Z,34.00
2018-08-07T15:55:25.394Z,34.10
2018-08-07T15:58:36.006Z,34.00
2018-08-07T16:01:45.882Z,34.10
2018-08-07T16:04:56.155Z,34.20
2018-08-07T16:08:06.080Z,34.00
2018-08-07T16:11:16.954Z,33.90
2018-08-07T16:14:26.721Z,34.00
2018-08-07T16:17:36.613Z,34.10
2018-08-07T16:20:46.343Z,34.00
2018-08-07T16:23:56.608Z,33.90
2018-08-07T16:27:06.771Z,33.80
2018-08-07T16:30:18.345Z,33.70
2018-08-07T16:33:28.899Z,33.70
2018-08-07T16:36:38.966Z,33.60
2018-08-07T16:39:48.940Z,33.50
2018-08-07T16:42:59.022Z,33.30
2018-08-07T16:49:19.035Z,33.20
2018-08-07T16:52:29.399Z,33.10
2018-08-07T16:55:39.771Z,32.90
2018-08-07T16:58:50.234Z,32.90
2018-08-07T17:02:00.702Z,32.90
2018-08-07T17:05:14.134Z,32.70
2018-08-07T17:08:24.284Z,32.70
2018-08-07T17:11:35.858Z,32.60
2018-08-07T17:14:46.398Z,32.40
2018-08-07T17:17:56.438Z,32.30
2018-08-07T17:21:07.116Z,32.20
2018-08-07T17:24:16.901Z,32.10
2018-08-07T17:27:27.762Z,32.00
2018-08-07T17:30:38.464Z,31.90
2018-08-07T17:33:49.299Z,31.80
2018-08-07T17:36:59.282Z,31.80
2018-08-07T17:40:10.701Z,31.60
2018-08-07T17:43:21.515Z,31.50
2018-08-07T17:46:31.206Z,31.40
2018-08-07T17:49:41.937Z,31.40
2018-08-07T17:52:54.089Z,31.20
2018-08-07T17:56:04.815Z,31.20
2018-08-07T17:59:14.471Z,31.00
2018-08-07T18:08:45.261Z,30.60
2018-08-07T18:11:56.382Z,30.50
2018-08-07T18:15:07.887Z,30.30
2018-08-07T18:18:18.689Z,30.10
2018-08-07T18:21:29.224Z,30.00
2018-08-07T18:24:39.122Z,29.70
2018-08-07T18:27:48.951Z,29.50
2018-08-07T18:30:58.808Z,29.40
2018-08-07T18:34:08.749Z,29.30
2018-08-07T18:37:19.024Z,29.10
2018-08-07T18:40:29.282Z,29.00
2018-08-07T18:43:39.768Z,29.00
2018-08-07T18:46:49.846Z,28.80
2018-08-07T18:49:59.600Z,28.80
2018-08-07T18:53:10.291Z,28.70
2018-08-07T18:56:20.614Z,28.70
2018-08-07T18:59:32.031Z,28.60
2018-08-07T19:02:42.643Z,28.50
2018-08-07T19:05:52.428Z,28.40
2018-08-07T19:09:07.158Z,28.30
2018-08-07T19:12:17.565Z,28.20
2018-08-07T19:15:28.071Z,28.10
2018-08-07T19:18:39.340Z,28.00
2018-08-07T19:21:50.226Z,28.00
2018-08-07T19:25:01.009Z,27.90
2018-08-07T19:28:10.802Z,27.80
2018-08-07T19:31:20.826Z,27.80
2018-08-07T19:34:32.661Z,27.70
2018-08-07T19:37:42.499Z,27.60
2018-08-07T19:40:52.145Z,27.50
2018-08-07T19:44:02.159Z,27.40
2018-08-07T19:47:12.352Z,27.40
2018-08-07T19:50:23.565Z,27.30
2018-08-07T19:53:33.742Z,27.20
2018-08-07T19:56:43.708Z,27.20
2018-08-07T19:59:54.091Z,27.20
2018-08-07T20:03:05.002Z,27.00
2018-08-07T20:06:15.369Z,27.00
2018-08-07T20:09:27.372Z,26.90
2018-08-07T20:12:38.433Z,26.90
2018-08-07T20:15:48.374Z,26.90
2018-08-07T20:18:59.478Z,26.80
2018-08-07T20:22:15.607Z,26.80
2018-08-07T20:25:26.070Z,26.70
2018-08-07T20:28:36.651Z,26.70
2018-08-07T20:31:46.465Z,26.60
2018-08-07T20:34:56.536Z,26.50
2018-08-07T20:38:06.970Z,26.50
2018-08-07T20:41:17.812Z,26.40
2018-08-07T20:44:27.454Z,26.40
2018-08-07T20:47:37.453Z,26.40
2018-08-07T20:50:47.124Z,26.30
2018-08-07T20:53:57.836Z,26.30
2018-08-07T20:57:08.091Z,26.20
2018-08-07T21:00:19.949Z,26.20
2018-08-07T21:03:30.267Z,26.10
2018-08-07T21:06:40.260Z,26.00
2018-08-07T21:09:50.867Z,26.00
2018-08-07T21:13:01.846Z,25.90
2018-08-07T21:16:12.521Z,25.90
2018-08-07T21:22:33.086Z,25.90
2018-08-07T21:25:43.439Z,25.80
2018-08-07T21:28:53.860Z,25.80
2018-08-07T21:32:03.806Z,25.70
2018-08-07T21:35:13.884Z,25.70
2018-08-07T21:38:24.560Z,25.70
2018-08-07T21:41:34.596Z,25.60
2018-08-07T21:44:44.704Z,25.50
2018-08-07T21:47:54.803Z,25.60
2018-08-07T21:51:04.603Z,25.50
2018-08-07T21:54:14.326Z,25.50
2018-08-07T21:57:24.283Z,25.40
2018-08-07T22:00:46.298Z,25.40
2018-08-07T22:03:56.291Z,25.30
2018-08-07T22:07:06.760Z,25.30
2018-08-07T22:10:19.015Z,25.20
2018-08-07T22:13:29.519Z,25.20
2018-08-07T22:16:39.860Z,25.20
2018-08-07T22:19:50.202Z,25.20
2018-08-07T22:23:00.457Z,25.10
2018-08-07T22:26:10.138Z,25.10
2018-08-07T22:29:19.898Z,25.10
2018-08-07T22:32:29.799Z,25.10
2018-08-07T22:35:39.746Z,25.00
2018-08-07T22:38:50.103Z,25.00
2018-08-07T22:42:00.117Z,25.00
2018-08-07T22:45:12.706Z,25.00
2018-08-07T22:48:22.648Z,24.90
2018-08-07T22:51:32.740Z,24.80
2018-08-07T22:54:42.699Z,24.70
2018-08-07T22:57:52.826Z,24.70
2018-08-07T23:01:03.409Z,24.60
2018-08-07T23:04:14.249Z,24.50
2018-08-07T23:07:24.364Z,24.50
2018-08-07T23:10:34.589Z,24.40
2018-08-07T23:13:44.881Z,24.10
2018-08-07T23:16:55.628Z,24.10
2018-08-07T23:20:06.283Z,23.90
2018-08-07T23:23:16.117Z,23.70
2018-08-07T23:26:25.956Z,23.60
2018-08-07T23:29:36.423Z,23.40
2018-08-07T23:32:46.817Z,23.30
2018-08-07T23:35:56.693Z,23.30
2018-08-07T23:39:08.493Z,23.30
2018-08-07T23:42:18.845Z,23.20
2018-08-07T23:45:29.945Z,23.10
2018-08-07T23:48:39.840Z,23.10
2018-08-07T23:51:49.765Z,23.20
2018-08-07T23:55:00.621Z,23.20
2018-08-07T23:58:11.000Z,23.30
